sensor_id;sensor_type;location;lat;lon;timestamp;temperature;humidity
9209;DHT22;4639;48.862;9.188;2022-11-25T00:00:22;5.40;99.90
9209;DHT22;4639;48.862;9.188;2022-11-25T00:02:48;5.40;99.90
9209;DHT22;4639;48.862;9.188;2022-11-25T00:05:13;5.30;99.90
9209;DHT22;4639;48.862;9.188;2022-11-25T00:07:39;5.30;99.90
9209;DHT22;4639;48.862;9.188;2022-11-25T00:10:05;5.30;99.90
9209;DHT22;4639;48.862;9.188;2022-11-25T00:12:31;5.20;99.90
9209;DHT22;4639;48.862;9.188;2022-11-25T00:14:56;5.20;99.90
9209;DHT22;4639;48.862;9.188;2022-11-25T00:17:22;5.10;99.90
9209;DHT22;4639;48.862;9.188;2022-11-25T00:19:48;5.00;99.90
9209;DHT22;4639;48.862;9.188;2022-11-25T00:22:15;5.00;99.90
9209;DHT22;4639;48.862;9.188;2022-11-25T00:24:41;5.00;99.90
9209;DHT22;4639;48.862;9.188;2022-11-25T00:27:07;5.00;99.90
9209;DHT22;4639;48.862;9.188;2022-11-25T00:29:33;5.00;99.90
9209;DHT22;4639;48.862;9.188;2022-11-25T00:31:59;5.10;99.90
9209;DHT22;4639;48.862;9.188;2022-11-25T00:34:24;5.00;99.90
9209;DHT22;4639;48.862;9.188;2022-11-25T00:36:50;4.90;99.90
9209;DHT22;4639;48.862;9.188;2022-11-25T00:39:18;5.00;99.90
9209;DHT22;4639;48.862;9.188;2022-11-25T00:41:45;5.00;99.90
9209;DHT22;4639;48.862;9.188;2022-11-25T00:44:30;5.00;99.90
9209;DHT22;4639;48.862;9.188;2022-11-25T00:49:31;5.00;99.90
9209;DHT22;4639;48.862;9.188;2022-11-25T00:51:57;5.00;99.90
9209;DHT22;4639;48.862;9.188;2022-11-25T00:54:23;5.00;99.90
9209;DHT22;4639;48.862;9.188;2022-11-25T00:56:49;5.00;99.90
9209;DHT22;4639;48.862;9.188;2022-11-25T00:59:15;5.00;99.90
9209;DHT22;4639;48.862;9.188;2022-11-25T01:01:40;4.90;99.90
9209;DHT22;4639;48.862;9.188;2022-11-25T01:04:06;5.00;99.90
9209;DHT22;4639;48.862;9.188;2022-11-25T01:06:34;5.10;99.90
9209;DHT22;4639;48.862;9.188;2022-11-25T01:08:59;5.20;99.90
9209;DHT22;4639;48.862;9.188;2022-11-25T01:11:25;5.20;99.90
9209;DHT22;4639;48.862;9.188;2022-11-25T01:13:51;5.20;99.90
9209;DHT22;4639;48.862;9.188;2022-11-25T01:16:20;5.20;99.90
9209;DHT22;4639;48.862;9.188;2022-11-25T01:18:46;5.10;99.90
9209;DHT22;4639;48.862;9.188;2022-11-25T01:21:15;5.10;99.90
9209;DHT22;4639;48.862;9.188;2022-11-25T01:23:42;5.00;99.90
9209;DHT22;4639;48.862;9.188;2022-11-25T01:26:11;5.00;99.90
9209;DHT22;4639;48.862;9.188;2022-11-25T01:28:36;4.90;99.90
9209;DHT22;4639;48.862;9.188;2022-11-25T01:31:10;4.80;99.90
9209;DHT22;4639;48.862;9.188;2022-11-25T01:33:37;4.80;99.90
9209;DHT22;4639;48.862;9.188;2022-11-25T01:36:08;4.80;99.90
9209;DHT22;4639;48.862;9.188;2022-11-25T01:38:34;4.70;99.90
9209;DHT22;4639;48.862;9.188;2022-11-25T01:41:01;4.70;99.90
9209;DHT22;4639;48.862;9.188;2022-11-25T01:43:27;4.80;99.90
9209;DHT22;4639;48.862;9.188;2022-11-25T01:46:23;4.90;99.90
9209;DHT22;4639;48.862;9.188;2022-11-25T01:48:59;4.90;99.90
9209;DHT22;4639;48.862;9.188;2022-11-25T01:51:46;5.00;99.90
9209;DHT22;4639;48.862;9.188;2022-11-25T01:54:16;4.90;99.90
9209;DHT22;4639;48.862;9.188;2022-11-25T01:56:50;4.90;99.90
9209;DHT22;4639;48.862;9.188;2022-11-25T01:59:17;4.90;99.90
9209;DHT22;4639;48.862;9.188;2022-11-25T02:01:42;5.00;99.90
9209;DHT22;4639;48.862;9.188;2022-11-25T02:04:09;5.00;99.90
9209;DHT22;4639;48.862;9.188;2022-11-25T02:06:44;5.10;99.90
9209;DHT22;4639;48.862;9.188;2022-11-25T02:09:13;5.10;99.90
9209;DHT22;4639;48.862;9.188;2022-11-25T02:11:41;5.00;99.90
9209;DHT22;4639;48.862;9.188;2022-11-25T02:14:08;5.00;99.90
9209;DHT22;4639;48.862;9.188;2022-11-25T02:16:36;5.00;99.90
9209;DHT22;4639;48.862;9.188;2022-11-25T02:19:01;5.00;99.90
9209;DHT22;4639;48.862;9.188;2022-11-25T02:21:38;4.90;99.90
9209;DHT22;4639;48.862;9.188;2022-11-25T02:26:40;5.00;99.90
9209;DHT22;4639;48.862;9.188;2022-11-25T02:29:05;5.00;99.90
9209;DHT22;4639;48.862;9.188;2022-11-25T02:31:31;5.00;99.90
9209;DHT22;4639;48.862;9.188;2022-11-25T02:33:56;4.90;99.90
9209;DHT22;4639;48.862;9.188;2022-11-25T02:36:22;4.80;99.90
9209;DHT22;4639;48.862;9.188;2022-11-25T02:38:52;4.80;99.90
9209;DHT22;4639;48.862;9.188;2022-11-25T02:41:21;4.90;99.90
9209;DHT22;4639;48.862;9.188;2022-11-25T02:43:49;4.90;99.90
9209;DHT22;4639;48.862;9.188;2022-11-25T02:46:17;4.90;99.90
9209;DHT22;4639;48.862;9.188;2022-11-25T02:48:43;4.90;99.90
9209;DHT22;4639;48.862;9.188;2022-11-25T02:51:12;4.90;99.90
9209;DHT22;4639;48.862;9.188;2022-11-25T02:53:38;5.00;99.90
9209;DHT22;4639;48.862;9.188;2022-11-25T02:56:04;5.00;99.90
9209;DHT22;4639;48.862;9.188;2022-11-25T02:58:30;5.10;99.90
9209;DHT22;4639;48.862;9.188;2022-11-25T03:00:56;5.20;99.90
9209;DHT22;4639;48.862;9.188;2022-11-25T03:03:22;5.20;99.90
9209;DHT22;4639;48.862;9.188;2022-11-25T03:05:47;5.20;99.90
9209;DHT22;4639;48.862;9.188;2022-11-25T03:08:13;5.30;99.90
9209;DHT22;4639;48.862;9.188;2022-11-25T03:10:39;5.20;99.90
9209;DHT22;4639;48.862;9.188;2022-11-25T03:13:06;5.20;99.90
9209;DHT22;4639;48.862;9.188;2022-11-25T03:15:33;5.10;99.90
9209;DHT22;4639;48.862;9.188;2022-11-25T03:17:58;5.10;99.90
9209;DHT22;4639;48.862;9.188;2022-11-25T03:20:24;5.10;99.90
9209;DHT22;4639;48.862;9.188;2022-11-25T03:22:50;5.00;99.90
9209;DHT22;4639;48.862;9.188;2022-11-25T03:25:16;5.00;99.90
9209;DHT22;4639;48.862;9.188;2022-11-25T03:27:42;5.00;99.90
9209;DHT22;4639;48.862;9.188;2022-11-25T03:30:16;5.00;99.90
9209;DHT22;4639;48.862;9.188;2022-11-25T03:32:42;5.10;99.90
9209;DHT22;4639;48.862;9.188;2022-11-25T03:35:08;5.20;99.90
9209;DHT22;4639;48.862;9.188;2022-11-25T03:37:34;5.10;99.90
9209;DHT22;4639;48.862;9.188;2022-11-25T03:40:00;4.90;99.90
9209;DHT22;4639;48.862;9.188;2022-11-25T03:42:26;4.80;99.90
9209;DHT22;4639;48.862;9.188;2022-11-25T03:44:51;4.70;99.90
9209;DHT22;4639;48.862;9.188;2022-11-25T03:47:17;4.60;99.90
9209;DHT22;4639;48.862;9.188;2022-11-25T03:49:42;4.60;99.90
9209;DHT22;4639;48.862;9.188;2022-11-25T03:52:08;4.60;99.90
9209;DHT22;4639;48.862;9.188;2022-11-25T03:54:34;4.60;99.90
9209;DHT22;4639;48.862;9.188;2022-11-25T03:56:59;4.60;99.90
9209;DHT22;4639;48.862;9.188;2022-11-25T03:59:25;4.60;99.90
9209;DHT22;4639;48.862;9.188;2022-11-25T04:01:50;4.60;99.90
9209;DHT22;4639;48.862;9.188;2022-11-25T04:04:16;4.60;99.90
9209;DHT22;4639;48.862;9.188;2022-11-25T04:06:41;4.60;99.90
9209;DHT22;4639;48.862;9.188;2022-11-25T04:09:08;4.40;99.90
9209;DHT22;4639;48.862;9.188;2022-11-25T04:11:33;4.40;99.90
9209;DHT22;4639;48.862;9.188;2022-11-25T04:14:18;4.30;99.90
9209;DHT22;4639;48.862;9.188;2022-11-25T04:16:43;4.20;99.90
9209;DHT22;4639;48.862;9.188;2022-11-25T04:19:09;4.20;99.90
9209;DHT22;4639;48.862;9.188;2022-11-25T04:21:35;4.20;99.90
9209;DHT22;4639;48.862;9.188;2022-11-25T04:24:00;4.20;99.90
9209;DHT22;4639;48.862;9.188;2022-11-25T04:26:26;4.20;99.90
9209;DHT22;4639;48.862;9.188;2022-11-25T04:28:51;4.20;99.90
9209;DHT22;4639;48.862;9.188;2022-11-25T04:31:17;4.30;99.90
9209;DHT22;4639;48.862;9.188;2022-11-25T04:33:43;4.30;99.90
9209;DHT22;4639;48.862;9.188;2022-11-25T04:36:08;4.30;99.90
9209;DHT22;4639;48.862;9.188;2022-11-25T04:38:34;4.30;99.90
9209;DHT22;4639;48.862;9.188;2022-11-25T04:41:00;4.30;99.90
9209;DHT22;4639;48.862;9.188;2022-11-25T04:43:26;4.30;99.90
9209;DHT22;4639;48.862;9.188;2022-11-25T04:45:51;4.30;99.90
9209;DHT22;4639;48.862;9.188;2022-11-25T04:48:17;4.30;99.90
9209;DHT22;4639;48.862;9.188;2022-11-25T04:50:43;4.30;99.90
9209;DHT22;4639;48.862;9.188;2022-11-25T04:53:09;4.30;99.90
9209;DHT22;4639;48.862;9.188;2022-11-25T04:55:34;4.30;99.90
9209;DHT22;4639;48.862;9.188;2022-11-25T04:58:00;4.20;99.90
9209;DHT22;4639;48.862;9.188;2022-11-25T05:00:25;4.20;99.90
9209;DHT22;4639;48.862;9.188;2022-11-25T05:02:51;4.20;99.90
9209;DHT22;4639;48.862;9.188;2022-11-25T05:05:17;4.20;99.90
9209;DHT22;4639;48.862;9.188;2022-11-25T05:07:42;4.30;99.90
9209;DHT22;4639;48.862;9.188;2022-11-25T05:10:08;4.20;99.90
9209;DHT22;4639;48.862;9.188;2022-11-25T05:12:33;4.30;99.90
9209;DHT22;4639;48.862;9.188;2022-11-25T05:14:59;4.30;99.90
9209;DHT22;4639;48.862;9.188;2022-11-25T05:17:27;4.40;99.90
9209;DHT22;4639;48.862;9.188;2022-11-25T05:19:53;4.30;99.90
9209;DHT22;4639;48.862;9.188;2022-11-25T05:22:21;4.30;99.90
9209;DHT22;4639;48.862;9.188;2022-11-25T05:24:47;4.20;99.90
9209;DHT22;4639;48.862;9.188;2022-11-25T05:27:13;4.20;99.90
9209;DHT22;4639;48.862;9.188;2022-11-25T05:29:38;4.10;99.90
9209;DHT22;4639;48.862;9.188;2022-11-25T05:32:05;4.20;99.90
9209;DHT22;4639;48.862;9.188;2022-11-25T05:34:31;4.20;99.90
9209;DHT22;4639;48.862;9.188;2022-11-25T05:36:56;4.30;99.90
9209;DHT22;4639;48.862;9.188;2022-11-25T05:39:22;4.20;99.90
9209;DHT22;4639;48.862;9.188;2022-11-25T05:41:48;4.20;99.90
9209;DHT22;4639;48.862;9.188;2022-11-25T05:44:14;4.30;99.90
9209;DHT22;4639;48.862;9.188;2022-11-25T05:46:39;4.40;99.90
9209;DHT22;4639;48.862;9.188;2022-11-25T05:49:05;4.40;99.90
9209;DHT22;4639;48.862;9.188;2022-11-25T05:51:30;4.40;99.90
9209;DHT22;4639;48.862;9.188;2022-11-25T05:53:56;4.40;99.90
9209;DHT22;4639;48.862;9.188;2022-11-25T05:56:22;4.40;99.90
9209;DHT22;4639;48.862;9.188;2022-11-25T05:58:48;4.30;99.90
9209;DHT22;4639;48.862;9.188;2022-11-25T06:01:15;4.30;99.90
9209;DHT22;4639;48.862;9.188;2022-11-25T06:03:42;4.30;99.90
9209;DHT22;4639;48.862;9.188;2022-11-25T06:06:09;4.40;99.90
9209;DHT22;4639;48.862;9.188;2022-11-25T06:08:36;4.40;99.90
9209;DHT22;4639;48.862;9.188;2022-11-25T06:11:10;4.30;99.90
9209;DHT22;4639;48.862;9.188;2022-11-25T06:13:36;4.40;99.90
9209;DHT22;4639;48.862;9.188;2022-11-25T06:16:09;4.40;99.90
9209;DHT22;4639;48.862;9.188;2022-11-25T06:18:36;4.30;99.90
9209;DHT22;4639;48.862;9.188;2022-11-25T06:21:03;4.40;99.90
9209;DHT22;4639;48.862;9.188;2022-11-25T06:23:28;4.40;99.90
9209;DHT22;4639;48.862;9.188;2022-11-25T06:25:54;4.30;99.90
9209;DHT22;4639;48.862;9.188;2022-11-25T06:28:26;4.40;99.90
9209;DHT22;4639;48.862;9.188;2022-11-25T06:30:52;4.40;99.90
9209;DHT22;4639;48.862;9.188;2022-11-25T06:33:18;4.40;99.90
9209;DHT22;4639;48.862;9.188;2022-11-25T06:35:43;4.40;99.90
9209;DHT22;4639;48.862;9.188;2022-11-25T06:38:09;4.30;99.90
9209;DHT22;4639;48.862;9.188;2022-11-25T06:40:34;4.30;99.90
9209;DHT22;4639;48.862;9.188;2022-11-25T06:43:00;4.30;99.90
9209;DHT22;4639;48.862;9.188;2022-11-25T06:45:25;4.40;99.90
9209;DHT22;4639;48.862;9.188;2022-11-25T06:47:51;4.30;99.90
9209;DHT22;4639;48.862;9.188;2022-11-25T06:50:17;4.30;99.90
9209;DHT22;4639;48.862;9.188;2022-11-25T06:52:42;4.30;99.90
9209;DHT22;4639;48.862;9.188;2022-11-25T06:55:08;4.10;99.90
9209;DHT22;4639;48.862;9.188;2022-11-25T06:57:34;4.00;99.90
9209;DHT22;4639;48.862;9.188;2022-11-25T06:59:59;4.00;99.90
9209;DHT22;4639;48.862;9.188;2022-11-25T07:02:25;4.00;99.90
9209;DHT22;4639;48.862;9.188;2022-11-25T07:04:50;4.10;99.90
9209;DHT22;4639;48.862;9.188;2022-11-25T07:07:16;4.20;99.90
9209;DHT22;4639;48.862;9.188;2022-11-25T07:09:42;4.30;99.90
9209;DHT22;4639;48.862;9.188;2022-11-25T07:12:07;4.30;99.90
9209;DHT22;4639;48.862;9.188;2022-11-25T07:14:33;4.30;99.90
9209;DHT22;4639;48.862;9.188;2022-11-25T07:16:58;4.40;99.90
9209;DHT22;4639;48.862;9.188;2022-11-25T07:19:24;4.40;99.90
9209;DHT22;4639;48.862;9.188;2022-11-25T07:21:49;4.30;99.90
9209;DHT22;4639;48.862;9.188;2022-11-25T07:24:16;4.30;99.90
9209;DHT22;4639;48.862;9.188;2022-11-25T07:26:43;4.30;99.90
9209;DHT22;4639;48.862;9.188;2022-11-25T07:29:12;4.30;99.90
9209;DHT22;4639;48.862;9.188;2022-11-25T07:31:41;4.40;99.90
9209;DHT22;4639;48.862;9.188;2022-11-25T07:34:11;4.50;99.90
9209;DHT22;4639;48.862;9.188;2022-11-25T07:36:38;4.60;99.90
9209;DHT22;4639;48.862;9.188;2022-11-25T07:39:06;4.60;99.90
9209;DHT22;4639;48.862;9.188;2022-11-25T07:41:32;4.60;99.90
9209;DHT22;4639;48.862;9.188;2022-11-25T07:44:02;4.60;99.90
9209;DHT22;4639;48.862;9.188;2022-11-25T07:46:34;4.60;99.90
9209;DHT22;4639;48.862;9.188;2022-11-25T07:49:02;4.70;99.90
9209;DHT22;4639;48.862;9.188;2022-11-25T07:51:31;4.80;99.90
9209;DHT22;4639;48.862;9.188;2022-11-25T07:53:59;4.90;99.90
9209;DHT22;4639;48.862;9.188;2022-11-25T07:56:26;4.90;99.90
9209;DHT22;4639;48.862;9.188;2022-11-25T07:58:52;4.90;99.90
9209;DHT22;4639;48.862;9.188;2022-11-25T08:01:18;4.80;99.90
9209;DHT22;4639;48.862;9.188;2022-11-25T08:03:46;4.90;99.90
9209;DHT22;4639;48.862;9.188;2022-11-25T08:06:14;4.90;99.90
9209;DHT22;4639;48.862;9.188;2022-11-25T08:08:41;4.90;99.90
9209;DHT22;4639;48.862;9.188;2022-11-25T08:11:12;5.00;99.90
9209;DHT22;4639;48.862;9.188;2022-11-25T08:13:38;5.00;99.90
9209;DHT22;4639;48.862;9.188;2022-11-25T08:16:04;5.20;99.90
9209;DHT22;4639;48.862;9.188;2022-11-25T08:18:31;5.20;99.90
9209;DHT22;4639;48.862;9.188;2022-11-25T08:21:01;5.30;99.90
9209;DHT22;4639;48.862;9.188;2022-11-25T08:23:29;5.40;99.90
9209;DHT22;4639;48.862;9.188;2022-11-25T08:25:55;5.50;99.90
9209;DHT22;4639;48.862;9.188;2022-11-25T08:28:21;5.60;99.90
9209;DHT22;4639;48.862;9.188;2022-11-25T08:30:47;5.60;99.90
9209;DHT22;4639;48.862;9.188;2022-11-25T08:33:12;5.70;99.90
9209;DHT22;4639;48.862;9.188;2022-11-25T08:35:38;5.80;99.90
9209;DHT22;4639;48.862;9.188;2022-11-25T08:38:08;5.80;99.90
9209;DHT22;4639;48.862;9.188;2022-11-25T08:40:35;5.80;99.90
9209;DHT22;4639;48.862;9.188;2022-11-25T08:43:01;5.70;99.90
9209;DHT22;4639;48.862;9.188;2022-11-25T08:45:28;5.60;99.90
9209;DHT22;4639;48.862;9.188;2022-11-25T08:47:53;5.70;99.90
9209;DHT22;4639;48.862;9.188;2022-11-25T08:50:20;5.80;99.90
9209;DHT22;4639;48.862;9.188;2022-11-25T08:52:46;5.90;99.90
9209;DHT22;4639;48.862;9.188;2022-11-25T08:55:12;6.00;99.90
9209;DHT22;4639;48.862;9.188;2022-11-25T08:57:37;6.00;99.90
9209;DHT22;4639;48.862;9.188;2022-11-25T09:00:06;6.10;99.90
9209;DHT22;4639;48.862;9.188;2022-11-25T09:02:32;6.10;99.90
9209;DHT22;4639;48.862;9.188;2022-11-25T09:04:58;6.20;99.90
9209;DHT22;4639;48.862;9.188;2022-11-25T09:07:24;6.20;99.90
9209;DHT22;4639;48.862;9.188;2022-11-25T09:09:49;6.30;99.90
9209;DHT22;4639;48.862;9.188;2022-11-25T09:12:15;6.40;99.90
9209;DHT22;4639;48.862;9.188;2022-11-25T09:14:41;6.50;99.90
9209;DHT22;4639;48.862;9.188;2022-11-25T09:17:10;6.80;99.90
9209;DHT22;4639;48.862;9.188;2022-11-25T09:19:37;6.90;99.90
9209;DHT22;4639;48.862;9.188;2022-11-25T09:22:02;7.10;99.90
9209;DHT22;4639;48.862;9.188;2022-11-25T09:24:28;7.20;99.90
9209;DHT22;4639;48.862;9.188;2022-11-25T09:26:54;7.40;99.90
9209;DHT22;4639;48.862;9.188;2022-11-25T09:29:19;7.70;99.90
9209;DHT22;4639;48.862;9.188;2022-11-25T09:31:45;7.80;99.90
9209;DHT22;4639;48.862;9.188;2022-11-25T09:34:10;8.00;99.90
9209;DHT22;4639;48.862;9.188;2022-11-25T09:36:36;8.00;99.90
9209;DHT22;4639;48.862;9.188;2022-11-25T09:39:03;8.00;99.90
9209;DHT22;4639;48.862;9.188;2022-11-25T09:55:35;7.90;99.90
9209;DHT22;4639;48.862;9.188;2022-11-25T09:58:15;7.70;99.90
9209;DHT22;4639;48.862;9.188;2022-11-25T10:00:47;7.50;99.90
9209;DHT22;4639;48.862;9.188;2022-11-25T10:06:03;7.60;99.90
9209;DHT22;4639;48.862;9.188;2022-11-25T10:08:42;7.70;99.90
9209;DHT22;4639;48.862;9.188;2022-11-25T10:14:29;7.90;99.90
9209;DHT22;4639;48.862;9.188;2022-11-25T10:17:29;7.90;99.90
9209;DHT22;4639;48.862;9.188;2022-11-25T10:22:44;7.90;99.90
9209;DHT22;4639;48.862;9.188;2022-11-25T10:25:15;8.00;99.90
9209;DHT22;4639;48.862;9.188;2022-11-25T10:30:19;8.10;99.90
9209;DHT22;4639;48.862;9.188;2022-11-25T10:32:51;8.20;99.90
9209;DHT22;4639;48.862;9.188;2022-11-25T10:35:29;8.10;99.90
9209;DHT22;4639;48.862;9.188;2022-11-25T10:37:59;8.00;99.90
9209;DHT22;4639;48.862;9.188;2022-11-25T10:40:25;8.10;99.90
9209;DHT22;4639;48.862;9.188;2022-11-25T10:42:51;8.20;99.90
9209;DHT22;4639;48.862;9.188;2022-11-25T10:45:21;8.20;99.90
9209;DHT22;4639;48.862;9.188;2022-11-25T10:48:09;8.20;99.90
9209;DHT22;4639;48.862;9.188;2022-11-25T10:51:05;8.20;99.90
9209;DHT22;4639;48.862;9.188;2022-11-25T10:53:33;8.20;99.90
9209;DHT22;4639;48.862;9.188;2022-11-25T10:56:12;8.40;99.90
9209;DHT22;4639;48.862;9.188;2022-11-25T10:58:41;8.40;99.90
9209;DHT22;4639;48.862;9.188;2022-11-25T11:01:23;8.50;99.90
9209;DHT22;4639;48.862;9.188;2022-11-25T11:04:05;8.70;99.90
9209;DHT22;4639;48.862;9.188;2022-11-25T11:06:38;8.80;99.90
9209;DHT22;4639;48.862;9.188;2022-11-25T11:09:04;8.90;99.90
9209;DHT22;4639;48.862;9.188;2022-11-25T11:11:30;9.00;99.90
9209;DHT22;4639;48.862;9.188;2022-11-25T11:14:12;9.00;99.90
9209;DHT22;4639;48.862;9.188;2022-11-25T11:16:41;9.00;99.90
9209;DHT22;4639;48.862;9.188;2022-11-25T11:19:20;9.00;99.90
9209;DHT22;4639;48.862;9.188;2022-11-25T11:21:45;9.10;99.90
9209;DHT22;4639;48.862;9.188;2022-11-25T11:24:41;9.10;99.90
9209;DHT22;4639;48.862;9.188;2022-11-25T11:27:20;9.10;99.90
9209;DHT22;4639;48.862;9.188;2022-11-25T11:29:46;9.20;99.90
9209;DHT22;4639;48.862;9.188;2022-11-25T11:32:30;9.20;99.90
9209;DHT22;4639;48.862;9.188;2022-11-25T11:35:05;9.20;99.90
9209;DHT22;4639;48.862;9.188;2022-11-25T11:43:54;9.10;99.90
9209;DHT22;4639;48.862;9.188;2022-11-25T11:51:14;9.10;99.90
9209;DHT22;4639;48.862;9.188;2022-11-25T11:54:05;8.90;99.90
9209;DHT22;4639;48.862;9.188;2022-11-25T12:04:48;8.90;99.90
9209;DHT22;4639;48.862;9.188;2022-11-25T12:07:43;8.90;99.90
9209;DHT22;4639;48.862;9.188;2022-11-25T12:12:49;8.90;99.90
9209;DHT22;4639;48.862;9.188;2022-11-25T12:17:52;9.00;99.90
9209;DHT22;4639;48.862;9.188;2022-11-25T12:23:43;9.00;99.90
9209;DHT22;4639;48.862;9.188;2022-11-25T12:26:18;9.00;99.90
9209;DHT22;4639;48.862;9.188;2022-11-25T12:28:51;9.00;99.90
9209;DHT22;4639;48.862;9.188;2022-11-25T12:31:25;8.90;99.90
9209;DHT22;4639;48.862;9.188;2022-11-25T12:36:36;8.80;99.90
9209;DHT22;4639;48.862;9.188;2022-11-25T12:42:14;8.70;99.90
9209;DHT22;4639;48.862;9.188;2022-11-25T12:47:25;8.80;99.90
9209;DHT22;4639;48.862;9.188;2022-11-25T12:49:53;8.70;99.90
9209;DHT22;4639;48.862;9.188;2022-11-25T12:55:24;8.80;99.90
9209;DHT22;4639;48.862;9.188;2022-11-25T13:01:23;8.70;99.90
9209;DHT22;4639;48.862;9.188;2022-11-25T13:07:21;8.70;99.90
9209;DHT22;4639;48.862;9.188;2022-11-25T13:15:29;9.00;99.90
9209;DHT22;4639;48.862;9.188;2022-11-25T13:18:02;9.00;99.90
9209;DHT22;4639;48.862;9.188;2022-11-25T13:25:31;8.90;99.90
9209;DHT22;4639;48.862;9.188;2022-11-25T13:27:58;9.00;99.90
9209;DHT22;4639;48.862;9.188;2022-11-25T13:32:56;9.10;99.90
9209;DHT22;4639;48.862;9.188;2022-11-25T13:37:50;9.20;99.90
9209;DHT22;4639;48.862;9.188;2022-11-25T13:40:28;9.10;99.90
9209;DHT22;4639;48.862;9.188;2022-11-25T13:42:57;9.20;99.90
9209;DHT22;4639;48.862;9.188;2022-11-25T13:45:31;9.30;99.90
9209;DHT22;4639;48.862;9.188;2022-11-25T13:48:05;9.30;99.90
9209;DHT22;4639;48.862;9.188;2022-11-25T13:50:35;9.30;99.90
9209;DHT22;4639;48.862;9.188;2022-11-25T13:53:29;9.50;99.90
9209;DHT22;4639;48.862;9.188;2022-11-25T13:56:23;9.30;99.90
9209;DHT22;4639;48.862;9.188;2022-11-25T14:01:34;9.60;99.90
9209;DHT22;4639;48.862;9.188;2022-11-25T14:04:04;9.50;99.90
9209;DHT22;4639;48.862;9.188;2022-11-25T14:23:06;9.60;99.90
9209;DHT22;4639;48.862;9.188;2022-11-25T14:25:49;9.60;99.90
9209;DHT22;4639;48.862;9.188;2022-11-25T14:28:38;9.50;99.90
9209;DHT22;4639;48.862;9.188;2022-11-25T14:31:08;9.50;99.90
9209;DHT22;4639;48.862;9.188;2022-11-25T14:33:57;9.70;99.90
9209;DHT22;4639;48.862;9.188;2022-11-25T14:36:31;9.80;99.90
9209;DHT22;4639;48.862;9.188;2022-11-25T14:39:32;9.90;99.90
9209;DHT22;4639;48.862;9.188;2022-11-25T14:42:05;9.80;99.90
9209;DHT22;4639;48.862;9.188;2022-11-25T14:44:46;9.80;99.90
9209;DHT22;4639;48.862;9.188;2022-11-25T14:47:20;9.70;99.90
9209;DHT22;4639;48.862;9.188;2022-11-25T14:49:52;9.70;99.90
9209;DHT22;4639;48.862;9.188;2022-11-25T14:52:38;9.70;99.90
9209;DHT22;4639;48.862;9.188;2022-11-25T14:55:05;9.70;99.90
9209;DHT22;4639;48.862;9.188;2022-11-25T14:57:42;9.60;99.90
9209;DHT22;4639;48.862;9.188;2022-11-25T15:00:10;9.60;99.90
9209;DHT22;4639;48.862;9.188;2022-11-25T15:02:40;9.70;99.90
9209;DHT22;4639;48.862;9.188;2022-11-25T15:07:40;9.70;99.90
9209;DHT22;4639;48.862;9.188;2022-11-25T15:10:27;9.70;99.90
9209;DHT22;4639;48.862;9.188;2022-11-25T15:12:52;9.80;99.90
9209;DHT22;4639;48.862;9.188;2022-11-25T15:15:18;9.90;99.90
9209;DHT22;4639;48.862;9.188;2022-11-25T15:17:43;9.80;99.90
9209;DHT22;4639;48.862;9.188;2022-11-25T15:20:14;9.80;99.90
9209;DHT22;4639;48.862;9.188;2022-11-25T15:22:46;9.70;99.90
9209;DHT22;4639;48.862;9.188;2022-11-25T15:25:13;9.70;99.90
9209;DHT22;4639;48.862;9.188;2022-11-25T15:27:47;9.60;99.90
9209;DHT22;4639;48.862;9.188;2022-11-25T15:30:27;9.50;99.90
9209;DHT22;4639;48.862;9.188;2022-11-25T15:32:54;9.50;99.90
9209;DHT22;4639;48.862;9.188;2022-11-25T15:35:22;9.50;99.90
9209;DHT22;4639;48.862;9.188;2022-11-25T15:37:48;9.50;99.90
9209;DHT22;4639;48.862;9.188;2022-11-25T15:43:06;9.50;99.90
9209;DHT22;4639;48.862;9.188;2022-11-25T15:45:53;9.50;99.90
9209;DHT22;4639;48.862;9.188;2022-11-25T15:48:26;9.50;99.90
9209;DHT22;4639;48.862;9.188;2022-11-25T15:51:01;9.50;99.90
9209;DHT22;4639;48.862;9.188;2022-11-25T15:53:28;9.50;99.90
9209;DHT22;4639;48.862;9.188;2022-11-25T15:55:59;9.50;99.90
9209;DHT22;4639;48.862;9.188;2022-11-25T15:58:25;9.50;99.90
9209;DHT22;4639;48.862;9.188;2022-11-25T16:01:20;9.50;99.90
9209;DHT22;4639;48.862;9.188;2022-11-25T16:03:47;9.50;99.90
9209;DHT22;4639;48.862;9.188;2022-11-25T16:06:25;9.50;99.90
9209;DHT22;4639;48.862;9.188;2022-11-25T16:09:02;9.50;99.90
9209;DHT22;4639;48.862;9.188;2022-11-25T16:11:30;9.40;99.90
9209;DHT22;4639;48.862;9.188;2022-11-25T16:14:28;9.60;99.90
9209;DHT22;4639;48.862;9.188;2022-11-25T16:17:03;9.70;99.90
9209;DHT22;4639;48.862;9.188;2022-11-25T16:19:33;9.80;99.90
9209;DHT22;4639;48.862;9.188;2022-11-25T16:22:01;9.70;99.90
9209;DHT22;4639;48.862;9.188;2022-11-25T16:24:32;9.70;99.90
9209;DHT22;4639;48.862;9.188;2022-11-25T16:27:02;9.70;99.90
9209;DHT22;4639;48.862;9.188;2022-11-25T16:29:38;9.60;99.90
9209;DHT22;4639;48.862;9.188;2022-11-25T16:32:25;9.50;99.90
9209;DHT22;4639;48.862;9.188;2022-11-25T16:34:50;9.50;99.90
9209;DHT22;4639;48.862;9.188;2022-11-25T16:37:16;9.40;99.90
9209;DHT22;4639;48.862;9.188;2022-11-25T16:39:42;9.40;99.90
9209;DHT22;4639;48.862;9.188;2022-11-25T16:42:19;9.50;99.90
9209;DHT22;4639;48.862;9.188;2022-11-25T16:44:47;9.60;99.90
9209;DHT22;4639;48.862;9.188;2022-11-25T16:47:13;9.60;99.90
9209;DHT22;4639;48.862;9.188;2022-11-25T16:49:39;9.50;99.90
9209;DHT22;4639;48.862;9.188;2022-11-25T16:52:05;9.50;99.90
9209;DHT22;4639;48.862;9.188;2022-11-25T16:54:30;9.40;99.90
9209;DHT22;4639;48.862;9.188;2022-11-25T16:56:58;9.30;99.90
9209;DHT22;4639;48.862;9.188;2022-11-25T16:59:36;9.20;99.90
9209;DHT22;4639;48.862;9.188;2022-11-25T17:02:07;9.30;99.90
9209;DHT22;4639;48.862;9.188;2022-11-25T17:04:37;9.40;99.90
9209;DHT22;4639;48.862;9.188;2022-11-25T17:07:08;9.40;99.90
9209;DHT22;4639;48.862;9.188;2022-11-25T17:09:34;9.50;99.90
9209;DHT22;4639;48.862;9.188;2022-11-25T17:12:00;9.50;99.90
9209;DHT22;4639;48.862;9.188;2022-11-25T17:14:31;9.50;99.90
9209;DHT22;4639;48.862;9.188;2022-11-25T17:17:01;9.40;99.90
9209;DHT22;4639;48.862;9.188;2022-11-25T17:19:27;9.40;99.90
9209;DHT22;4639;48.862;9.188;2022-11-25T17:21:53;9.40;99.90
9209;DHT22;4639;48.862;9.188;2022-11-25T17:24:23;9.40;99.90
9209;DHT22;4639;48.862;9.188;2022-11-25T17:26:56;9.40;99.90
9209;DHT22;4639;48.862;9.188;2022-11-25T17:29:34;9.40;99.90
9209;DHT22;4639;48.862;9.188;2022-11-25T17:32:02;9.50;99.90
9209;DHT22;4639;48.862;9.188;2022-11-25T17:34:28;9.50;99.90
9209;DHT22;4639;48.862;9.188;2022-11-25T17:36:53;9.50;99.90
9209;DHT22;4639;48.862;9.188;2022-11-25T17:39:19;9.50;99.90
9209;DHT22;4639;48.862;9.188;2022-11-25T17:41:47;9.60;99.90
9209;DHT22;4639;48.862;9.188;2022-11-25T17:44:24;9.60;99.90
9209;DHT22;4639;48.862;9.188;2022-11-25T17:46:50;9.60;99.90
9209;DHT22;4639;48.862;9.188;2022-11-25T17:49:16;9.50;99.90
9209;DHT22;4639;48.862;9.188;2022-11-25T17:51:42;9.50;99.90
9209;DHT22;4639;48.862;9.188;2022-11-25T17:54:08;9.50;99.90
9209;DHT22;4639;48.862;9.188;2022-11-25T17:56:34;9.50;99.90
9209;DHT22;4639;48.862;9.188;2022-11-25T17:59:02;9.60;99.90
9209;DHT22;4639;48.862;9.188;2022-11-25T18:01:29;9.60;99.90
9209;DHT22;4639;48.862;9.188;2022-11-25T18:03:54;9.50;99.90
9209;DHT22;4639;48.862;9.188;2022-11-25T18:06:20;9.50;99.90
9209;DHT22;4639;48.862;9.188;2022-11-25T18:08:46;9.50;99.90
9209;DHT22;4639;48.862;9.188;2022-11-25T18:11:15;9.50;99.90
9209;DHT22;4639;48.862;9.188;2022-11-25T18:13:43;9.50;99.90
9209;DHT22;4639;48.862;9.188;2022-11-25T18:16:09;9.40;99.90
9209;DHT22;4639;48.862;9.188;2022-11-25T18:18:35;9.40;99.90
9209;DHT22;4639;48.862;9.188;2022-11-25T18:21:00;9.40;99.90
9209;DHT22;4639;48.862;9.188;2022-11-25T18:23:26;9.40;99.90
9209;DHT22;4639;48.862;9.188;2022-11-25T18:25:53;9.40;99.90